This is the latest recevied weather packets stored in our database for station/object G0TGD-10. If no packets are shown the sender has not sent any weather packets the latest 10 day(s).
| Time | Temp. | Humidity | Pressure | Rain* | Wind** | Luminosity | Snow |
|---|---|---|---|---|---|---|---|
| 1778148396 | 18.89° C | 56% | 1016.3 hPa | - | - | - | - |
| 1778147496 | 21.11° C | 56% | 1016.3 hPa | - | - | - | - |
| 1778146596 | 16.67° C | 61% | 1016.5 hPa | - | - | - | - |
| 1778145696 | 20° C | 56% | 1016.4 hPa | - | - | - | - |
| 1778144795 | 16.67° C | 62% | 1016.5 hPa | - | - | - | - |
| 1778143895 | 17.22° C | 61% | 1016.5 hPa | - | - | - | - |
| 1778142995 | 16.67° C | 65% | 1016.6 hPa | - | - | - | - |
| 1778142095 | 15.56° C | 65% | 1016.6 hPa | - | - | - | - |
| 1778141195 | 18.89° C | 64% | 1016.5 hPa | - | - | - | - |
| 1778140295 | 17.22° C | 66% | 1016.6 hPa | - | - | - | - |
| 1778139395 | 15° C | 69% | 1016.5 hPa | - | - | - | - |
| 1778138495 | 10.56° C | 74% | 1016.5 hPa | - | - | - | - |
| 1778137595 | 6.67° C | 74% | 1016.6 hPa | - | - | - | - |
| 1778136695 | 5.56° C | 72% | 1016.5 hPa | - | - | - | - |
| 1778135794 | 4.44° C | 73% | 1016.5 hPa | - | - | - | - |
| 1778134895 | 3.89° C | 73% | 1016.5 hPa | - | - | - | - |
| 1778133994 | 2.78° C | 73% | 1016.4 hPa | - | - | - | - |
| 1778133094 | 2.22° C | 73% | 1016.4 hPa | - | - | - | - |
| 1778132194 | 2.22° C | 74% | 1016.3 hPa | - | - | - | - |
| 1778131294 | 1.67° C | 74% | 1016.4 hPa | - | - | - | - |
| 1778130394 | 1.67° C | 74% | 1016.4 hPa | - | - | - | - |
| 1778129494 | 1.11° C | 74% | 1016.3 hPa | - | - | - | - |
| 1778128594 | 1.11° C | 73% | 1016.2 hPa | - | - | - | - |
| 1778127694 | 1.67° C | 73% | 1016.3 hPa | - | - | - | - |
| 1778126794 | 1.67° C | 73% | 1016.2 hPa | - | - | - | - |
* Rain since midnight (hover to see other rain measurements)
** Current wind speed in m/s (hover to see current wind gust speed)